Time;durP1;ratioP1;P1;durP2;ratioP2;P2;SDS_P1;SDS_P2;PMS_P1;PMS_P2;Temp;Humidity;BMP_temperature;BMP_pressure;BME280_temperature;BME280_humidity;BME280_pressure;Samples;Min_cycle;Max_cycle;Signal;HPM_P1;HPM_P2
2023/04/05 00:00:00;;;;;;;11.50;7.30;;;3.40;99.90;;;;;;5073149;28;20200;-81
2023/04/05 00:02:28;;;;;;;9.30;6.40;;;3.40;99.90;;;;;;5073749;28;20193;-81
2023/04/05 00:04:58;;;;;;;9.90;6.97;;;3.40;99.90;;;;;;5072666;28;20236;-81
2023/04/05 00:07:25;;;;;;;9.17;7.10;;;3.40;99.90;;;;;;5073140;28;20236;-82
2023/04/05 00:09:52;;;;;;;9.03;6.67;;;3.40;99.90;;;;;;5073289;28;20259;-81
2023/04/05 00:12:19;;;;;;;7.13;5.93;;;3.30;99.90;;;;;;5073471;28;20290;-81
2023/04/05 00:14:47;;;;;;;9.80;7.17;;;3.30;99.90;;;;;;5071763;28;20213;-81
2023/04/05 00:17:14;;;;;;;10.13;6.77;;;3.20;99.90;;;;;;5073487;28;20201;-81
2023/04/05 00:19:42;;;;;;;8.20;6.30;;;3.20;99.90;;;;;;5073145;28;20202;-81
2023/04/05 00:22:10;;;;;;;8.33;6.50;;;3.20;99.90;;;;;;5071810;28;20200;-81
2023/04/05 00:24:42;;;;;;;7.53;5.93;;;3.20;99.90;;;;;;5071294;28;20259;-82
2023/04/05 00:27:09;;;;;;;8.60;6.50;;;3.20;99.90;;;;;;5071691;28;20217;-82
2023/04/05 00:29:36;;;;;;;8.73;7.00;;;3.20;99.90;;;;;;5073246;28;20247;-81
2023/04/05 00:32:03;;;;;;;12.63;7.23;;;3.10;99.90;;;;;;5071808;28;20292;-81
2023/04/05 00:34:31;;;;;;;9.80;6.47;;;3.10;99.90;;;;;;5072976;28;20201;-81
2023/04/05 00:36:58;;;;;;;8.13;5.93;;;3.10;99.90;;;;;;5073526;28;20236;-81
2023/04/05 00:39:26;;;;;;;9.77;6.37;;;3.10;99.90;;;;;;5072185;28;20271;-83
2023/04/05 00:41:53;;;;;;;9.80;6.50;;;3.10;99.90;;;;;;5072966;28;20285;-82
2023/04/05 00:44:20;;;;;;;9.50;6.10;;;3.10;99.90;;;;;;5073068;28;20292;-83
2023/04/05 00:46:47;;;;;;;10.63;7.13;;;3.10;99.90;;;;;;5072904;28;20224;-83
2023/04/05 00:49:14;;;;;;;12.03;8.70;;;3.10;99.90;;;;;;5072244;28;20315;-83
2023/04/05 00:51:41;;;;;;;11.07;7.80;;;3.10;99.90;;;;;;5072939;28;20590;-82
2023/04/05 00:54:10;;;;;;;9.03;7.03;;;3.00;99.90;;;;;;5072816;28;20492;-83
2023/04/05 00:56:39;;;;;;;9.03;6.50;;;3.00;99.90;;;;;;5072156;28;20691;-82
2023/04/05 00:59:06;;;;;;;10.23;6.43;;;3.00;99.90;;;;;;5072848;28;20686;-82
2023/04/05 01:01:36;;;;;;;8.80;6.30;;;3.00;99.90;;;;;;5076892;28;20236;-82
2023/04/05 01:04:06;;;;;;;9.23;5.80;;;3.00;99.90;;;;;;5076495;28;20260;-81
2023/04/05 01:06:59;;;;;;;9.03;6.47;;;2.90;99.90;;;;;;5076545;28;20201;-83
2023/04/05 01:09:36;;;;;;;9.30;6.43;;;2.90;99.90;;;;;;5075133;28;20228;-81
2023/04/05 01:12:07;;;;;;;9.33;6.60;;;2.90;99.90;;;;;;5076903;28;20284;-83
2023/04/05 01:14:44;;;;;;;10.23;6.13;;;2.80;99.90;;;;;;5075753;28;20628;-83
2023/04/05 01:17:11;;;;;;;9.73;6.50;;;2.90;99.90;;;;;;5076684;28;20185;-82
2023/04/05 01:19:40;;;;;;;12.07;6.83;;;2.80;99.90;;;;;;5076722;28;20582;-83
2023/04/05 01:22:36;;;;;;;8.87;6.60;;;2.80;99.90;;;;;;5076262;28;20212;-82
2023/04/05 01:25:31;;;;;;;9.70;6.73;;;2.80;99.90;;;;;;5075800;28;20197;-83
2023/04/05 01:28:19;;;;;;;9.70;7.13;;;2.80;99.90;;;;;;5070010;28;20232;-83
2023/04/05 01:30:54;;;;;;;8.90;7.00;;;2.80;99.90;;;;;;5076454;28;20489;-82
2023/04/05 01:33:33;;;;;;;12.73;7.27;;;2.80;99.90;;;;;;5075936;28;20266;-84
2023/04/05 01:36:16;;;;;;;11.40;6.83;;;2.80;99.90;;;;;;5076882;28;20235;-83
2023/04/05 01:38:48;;;;;;;10.23;7.20;;;2.80;99.90;;;;;;5066460;28;20202;-83
2023/04/05 01:41:15;;;;;;;10.77;6.80;;;2.80;99.90;;;;;;5056018;28;20277;-83
2023/04/05 01:43:42;;;;;;;9.97;7.30;;;2.70;99.90;;;;;;5054848;28;20201;-84
2023/04/05 01:46:10;;;;;;;9.70;7.60;;;2.70;99.90;;;;;;5056319;28;20291;-82
2023/04/05 01:48:37;;;;;;;10.53;8.10;;;2.80;99.90;;;;;;5076015;28;20993;-84
2023/04/05 01:51:05;;;;;;;10.53;7.87;;;2.80;99.90;;;;;;5075554;28;20302;-82
2023/04/05 01:53:32;;;;;;;12.27;8.47;;;2.80;99.90;;;;;;5076279;28;20201;-83
2023/04/05 01:56:00;;;;;;;12.43;8.27;;;2.70;99.90;;;;;;5075785;28;20206;-82
2023/04/05 01:58:27;;;;;;;10.00;7.67;;;2.70;99.90;;;;;;5074196;28;20293;-82
2023/04/05 02:00:54;;;;;;;13.23;8.00;;;2.70;99.90;;;;;;5076507;28;20263;-81
2023/04/05 02:03:23;;;;;;;10.07;7.53;;;2.70;99.90;;;;;;5069358;28;20209;-82
2023/04/05 02:05:50;;;;;;;11.63;7.60;;;2.70;99.90;;;;;;5065388;28;20290;-82
2023/04/05 02:08:17;;;;;;;9.50;7.33;;;2.70;99.90;;;;;;5075210;28;20197;-81
2023/04/05 02:10:44;;;;;;;11.07;7.30;;;2.60;99.90;;;;;;5075397;28;20312;-81
2023/04/05 02:13:12;;;;;;;10.83;7.43;;;2.60;99.90;;;;;;5074385;28;20197;-81
2023/04/05 02:15:39;;;;;;;11.80;7.97;;;2.60;99.90;;;;;;5076016;28;20197;-81
2023/04/05 02:18:08;;;;;;;10.40;7.77;;;2.50;99.90;;;;;;5075567;28;20207;-82
2023/04/05 02:20:36;;;;;;;10.27;7.23;;;2.50;99.90;;;;;;5074355;28;20228;-81
2023/04/05 02:23:03;;;;;;;10.27;7.87;;;2.50;99.90;;;;;;5075705;28;20197;-80
2023/04/05 02:25:30;;;;;;;10.43;8.00;;;2.40;99.90;;;;;;5065455;28;20198;-82
2023/04/05 02:27:57;;;;;;;11.87;7.77;;;2.40;99.90;;;;;;5054748;28;20233;-81
2023/04/05 02:30:27;;;;;;;12.33;8.33;;;2.40;99.90;;;;;;5054956;28;20618;-83
2023/04/05 02:32:54;;;;;;;11.40;7.83;;;2.40;99.90;;;;;;5075234;28;20508;-82
2023/04/05 02:35:22;;;;;;;9.53;7.67;;;2.30;99.90;;;;;;5074261;28;20201;-83
2023/04/05 02:37:50;;;;;;;12.17;8.37;;;2.30;99.90;;;;;;5075998;28;20254;-82
2023/04/05 02:40:17;;;;;;;9.67;7.70;;;2.30;99.90;;;;;;5075491;28;20198;-82
2023/04/05 02:42:44;;;;;;;10.73;8.20;;;2.30;99.90;;;;;;5075061;28;20292;-82
2023/04/05 02:45:11;;;;;;;7.40;6.53;;;2.30;99.90;;;;;;5075441;28;20319;-80
2023/04/05 02:47:38;;;;;;;9.73;7.13;;;2.30;99.90;;;;;;5074867;28;20292;-83
2023/04/05 02:50:06;;;;;;;8.90;7.33;;;2.30;99.90;;;;;;5068555;28;20571;-81
2023/04/05 02:52:33;;;;;;;9.20;7.37;;;2.20;99.90;;;;;;5055381;28;20252;-82
2023/04/05 02:55:02;;;;;;;9.33;7.30;;;2.20;99.90;;;;;;5055265;28;20209;-81
2023/04/05 02:57:29;;;;;;;9.47;6.93;;;2.20;99.90;;;;;;5054665;28;20221;-82
2023/04/05 02:59:56;;;;;;;9.47;6.87;;;2.20;99.90;;;;;;5074042;28;20251;-83
2023/04/05 03:02:22;;;;;;;7.53;6.27;;;2.20;99.90;;;;;;5069922;28;20205;-82
2023/04/05 03:04:52;;;;;;;9.10;7.10;;;2.10;99.90;;;;;;5054904;28;20202;-82
2023/04/05 03:07:20;;;;;;;9.90;6.07;;;2.10;99.90;;;;;;5055371;28;20202;-83
2023/04/05 03:09:47;;;;;;;7.87;5.63;;;2.10;99.90;;;;;;5072929;28;20212;-82
2023/04/05 03:12:16;;;;;;;8.97;6.93;;;2.00;99.90;;;;;;5072396;28;20201;-82
2023/04/05 03:14:44;;;;;;;7.80;6.10;;;2.00;99.90;;;;;;5073630;28;20216;-83
2023/04/05 03:17:11;;;;;;;8.63;7.03;;;2.00;99.90;;;;;;5073064;28;20482;-82
2023/04/05 03:19:38;;;;;;;9.13;5.80;;;1.90;99.90;;;;;;5071934;28;20276;-83
2023/04/05 03:22:06;;;;;;;8.67;6.77;;;1.90;99.90;;;;;;5072652;28;20581;-82
2023/04/05 03:24:33;;;;;;;8.80;7.20;;;1.90;99.90;;;;;;5073551;28;20205;-81
2023/04/05 03:27:02;;;;;;;7.77;6.17;;;1.90;99.90;;;;;;5074550;28;20221;-82
2023/04/05 03:29:30;;;;;;;6.57;5.70;;;1.80;99.90;;;;;;5072399;28;20205;-82
2023/04/05 03:31:58;;;;;;;7.70;6.33;;;1.80;99.90;;;;;;5072448;28;20221;-82
2023/04/05 03:34:27;;;;;;;8.57;6.40;;;1.80;99.90;;;;;;5071990;28;20542;-82
2023/04/05 03:36:54;;;;;;;8.10;6.37;;;1.80;99.90;;;;;;5052494;28;20202;-81
2023/04/05 03:39:21;;;;;;;9.87;7.33;;;1.70;99.90;;;;;;5054429;28;20632;-80
2023/04/05 03:41:48;;;;;;;9.17;6.80;;;1.80;99.90;;;;;;5054382;28;20212;-82
2023/04/05 03:44:15;;;;;;;9.70;6.53;;;1.70;99.90;;;;;;5053926;28;20200;-81
2023/04/05 03:46:44;;;;;;;10.70;7.70;;;1.70;99.90;;;;;;5057633;28;20243;-82
2023/04/05 03:49:11;;;;;;;9.00;7.33;;;1.60;99.90;;;;;;5073933;28;20204;-81
2023/04/05 03:51:38;;;;;;;10.40;7.33;;;1.60;99.90;;;;;;5073463;28;20224;-81
2023/04/05 03:54:05;;;;;;;9.93;7.43;;;1.60;99.90;;;;;;5073428;28;20284;-80
2023/04/05 03:56:33;;;;;;;7.90;6.37;;;1.60;99.90;;;;;;5074087;28;20304;-82
2023/04/05 03:58:59;;;;;;;8.50;6.47;;;1.50;99.90;;;;;;5073558;28;20247;-81
2023/04/05 04:01:26;;;;;;;10.37;6.50;;;1.50;99.90;;;;;;5073354;28;20582;-83
2023/04/05 04:03:55;;;;;;;10.17;7.40;;;1.50;99.90;;;;;;5073784;28;20207;-81
2023/04/05 04:06:25;;;;;;;8.93;6.60;;;1.50;99.90;;;;;;5073726;28;20197;-83
2023/04/05 04:08:52;;;;;;;8.97;7.20;;;1.40;99.90;;;;;;5073942;28;20193;-80
2023/04/05 04:11:19;;;;;;;9.40;6.90;;;1.40;99.90;;;;;;5066491;28;20304;-81
2023/04/05 04:13:46;;;;;;;9.17;7.17;;;1.40;99.90;;;;;;5053700;28;20197;-82
2023/04/05 04:16:13;;;;;;;9.33;8.30;;;1.40;99.90;;;;;;5053451;28;20201;-81
2023/04/05 04:18:40;;;;;;;10.60;8.63;;;1.40;99.90;;;;;;5053095;28;20204;-83
2023/04/05 04:21:09;;;;;;;15.70;8.97;;;1.40;99.90;;;;;;5065771;28;20208;-82
2023/04/05 04:23:37;;;;;;;10.40;7.97;;;1.30;99.90;;;;;;5073690;28;20196;-82
2023/04/05 04:26:04;;;;;;;11.30;8.33;;;1.30;99.90;;;;;;5073787;28;20200;-83
2023/04/05 04:28:33;;;;;;;14.97;9.23;;;1.30;99.90;;;;;;5073253;28;20197;-84
2023/04/05 04:31:03;;;;;;;12.07;8.67;;;1.30;99.90;;;;;;5073344;28;20262;-82
2023/04/05 04:33:30;;;;;;;11.37;7.80;;;1.30;99.90;;;;;;5072645;28;20233;-82
2023/04/05 04:35:57;;;;;;;11.87;8.70;;;1.30;99.90;;;;;;5073359;28;20653;-82
2023/04/05 04:38:25;;;;;;;11.57;8.80;;;1.30;99.90;;;;;;5071800;28;20220;-82
2023/04/05 04:40:52;;;;;;;12.43;9.60;;;1.20;99.90;;;;;;5053201;28;20194;-83
2023/04/05 04:43:26;;;;;;;11.67;9.00;;;1.30;99.90;;;;;;5062819;28;20209;-82
2023/04/05 04:45:54;;;;;;;14.27;9.70;;;1.30;99.90;;;;;;5072404;28;20753;-82
2023/04/05 04:48:21;;;;;;;13.87;10.00;;;1.20;99.90;;;;;;5072936;28;20306;-83
2023/04/05 04:50:49;;;;;;;15.83;11.03;;;1.20;99.90;;;;;;5073559;28;20320;-81
2023/04/05 04:53:17;;;;;;;16.47;11.37;;;1.20;99.90;;;;;;5072905;28;20775;-82
2023/04/05 04:55:48;;;;;;;13.63;10.07;;;1.20;99.90;;;;;;5073055;28;20205;-82
2023/04/05 04:58:17;;;;;;;15.83;10.67;;;1.20;99.90;;;;;;5073103;28;20278;-83
2023/04/05 05:00:43;;;;;;;13.83;10.53;;;1.20;99.90;;;;;;5072810;28;20217;-82
2023/04/05 05:03:11;;;;;;;15.53;10.90;;;1.20;99.90;;;;;;5072790;28;20197;-83
2023/04/05 05:05:42;;;;;;;12.97;10.43;;;1.20;99.90;;;;;;5072312;28;20526;-81
2023/04/05 05:08:10;;;;;;;19.53;12.40;;;1.20;99.90;;;;;;5072953;28;20198;-81
2023/04/05 05:10:37;;;;;;;16.93;11.80;;;1.20;99.90;;;;;;5073175;28;20228;-82
2023/04/05 05:13:05;;;;;;;16.50;11.80;;;1.20;99.90;;;;;;5072898;28;20259;-83
2023/04/05 05:15:32;;;;;;;16.03;11.77;;;1.30;99.90;;;;;;5072940;28;20204;-82
2023/04/05 05:17:59;;;;;;;14.57;10.67;;;1.30;99.90;;;;;;5073279;28;20740;-80
2023/04/05 05:20:27;;;;;;;14.70;11.00;;;1.30;99.90;;;;;;5072989;28;20612;-83
2023/04/05 05:22:54;;;;;;;19.90;10.83;;;1.30;99.90;;;;;;5072879;28;20739;-82
2023/04/05 05:25:22;;;;;;;16.43;11.13;;;1.30;99.90;;;;;;5072839;28;20280;-82
2023/04/05 05:27:49;;;;;;;19.47;12.17;;;1.30;99.90;;;;;;5073233;28;20618;-82
2023/04/05 05:30:19;;;;;;;17.60;12.23;;;1.30;99.90;;;;;;5063048;28;20614;-82
2023/04/05 05:32:46;;;;;;;17.87;11.67;;;1.30;99.90;;;;;;5052593;28;20206;-81
2023/04/05 05:35:13;;;;;;;14.83;10.30;;;1.40;99.90;;;;;;5052826;28;20685;-83
2023/04/05 05:37:40;;;;;;;16.10;11.10;;;1.40;99.90;;;;;;5052722;28;20285;-83
2023/04/05 05:40:08;;;;;;;13.40;10.57;;;1.40;99.90;;;;;;5063505;28;20213;-83
2023/04/05 05:42:35;;;;;;;15.00;10.80;;;1.40;99.90;;;;;;5064561;28;20225;-83
2023/04/05 05:45:05;;;;;;;15.20;10.70;;;1.50;99.90;;;;;;5053378;28;20303;-82
2023/04/05 05:47:33;;;;;;;13.77;10.40;;;1.50;99.90;;;;;;5062750;28;20290;-83
2023/04/05 05:50:00;;;;;;;14.43;10.13;;;1.50;99.90;;;;;;5076697;28;20244;-84
2023/04/05 05:52:27;;;;;;;13.30;10.23;;;1.50;99.90;;;;;;5075231;28;20350;-83
2023/04/05 05:54:54;;;;;;;15.73;9.97;;;1.50;99.90;;;;;;5077033;28;20214;-83
2023/04/05 05:57:21;;;;;;;13.13;10.33;;;1.50;99.90;;;;;;5076198;28;20197;-82
2023/04/05 05:59:48;;;;;;;16.00;10.60;;;1.60;99.90;;;;;;5075691;28;20288;-83
2023/04/05 06:02:15;;;;;;;12.73;9.17;;;1.60;99.90;;;;;;5076317;28;20201;-83
2023/04/05 06:04:44;;;;;;;14.37;10.20;;;1.60;99.90;;;;;;5075880;28;20243;-82
2023/04/05 06:07:11;;;;;;;14.63;10.50;;;1.60;99.90;;;;;;5075237;28;20193;-81
2023/04/05 06:09:38;;;;;;;13.43;10.60;;;1.60;99.90;;;;;;5076454;28;20217;-83
2023/04/05 06:12:05;;;;;;;15.63;10.87;;;1.70;99.90;;;;;;5075162;28;20308;-83
2023/04/05 06:14:32;;;;;;;15.23;11.17;;;1.70;99.90;;;;;;5075997;28;20632;-83
2023/04/05 06:16:58;;;;;;;15.93;11.57;;;1.80;99.90;;;;;;5075261;28;20284;-80
2023/04/05 06:19:25;;;;;;;18.83;12.40;;;1.80;99.90;;;;;;5074980;28;20212;-81
2023/04/05 06:21:54;;;;;;;16.60;11.60;;;1.90;99.90;;;;;;5076043;28;20204;-81
2023/04/05 06:24:21;;;;;;;14.57;11.17;;;1.90;99.90;;;;;;5076064;28;20205;-82
2023/04/05 06:26:49;;;;;;;17.47;13.43;;;2.00;99.90;;;;;;5075324;28;20312;-82
2023/04/05 06:29:16;;;;;;;20.20;13.97;;;2.00;99.90;;;;;;5075240;28;20201;-81
2023/04/05 06:31:45;;;;;;;18.87;13.23;;;2.10;99.90;;;;;;5075423;28;20244;-82
2023/04/05 06:34:12;;;;;;;18.90;13.53;;;2.10;99.90;;;;;;5075101;28;20575;-82
2023/04/05 06:36:39;;;;;;;19.80;14.40;;;2.20;99.90;;;;;;5075239;28;20276;-81
2023/04/05 06:39:08;;;;;;;18.60;13.80;;;2.30;99.90;;;;;;5062898;28;20210;-83
2023/04/05 06:41:34;;;;;;;21.13;14.20;;;2.30;99.90;;;;;;5055554;28;20209;-83
2023/04/05 06:44:01;;;;;;;20.70;14.63;;;2.40;99.90;;;;;;5060958;28;20283;-82
2023/04/05 06:46:29;;;;;;;17.97;13.47;;;2.50;99.90;;;;;;5075581;28;20257;-82
2023/04/05 06:48:56;;;;;;;20.07;13.23;;;2.50;99.90;;;;;;5074880;28;20538;-82
2023/04/05 06:51:24;;;;;;;18.03;13.37;;;2.60;99.90;;;;;;5075286;28;20231;-82
2023/04/05 06:53:51;;;;;;;20.50;14.50;;;2.70;99.90;;;;;;5076935;28;20201;-82
2023/04/05 06:56:20;;;;;;;30.97;17.80;;;2.70;99.90;;;;;;5088885;28;20228;-82
2023/04/05 06:58:48;;;;;;;19.13;14.07;;;2.80;99.90;;;;;;5074489;28;20605;-84
2023/04/05 07:01:16;;;;;;;21.03;14.33;;;3.00;99.90;;;;;;5074493;28;20197;-83
2023/04/05 07:03:43;;;;;;;22.13;14.97;;;3.00;99.90;;;;;;5085140;28;20200;-81
2023/04/05 07:06:10;;;;;;;20.60;14.33;;;3.10;99.90;;;;;;5084884;28;20205;-84
2023/04/05 07:08:37;;;;;;;19.47;14.50;;;3.20;99.90;;;;;;5054961;28;20296;-83
2023/04/05 07:11:04;;;;;;;20.83;14.00;;;3.30;99.90;;;;;;5074700;28;20224;-84
2023/04/05 07:13:33;;;;;;;21.80;15.17;;;3.40;99.90;;;;;;5075276;28;20622;-84
2023/04/05 07:16:01;;;;;;;22.57;14.10;;;3.50;99.90;;;;;;5074818;28;20217;-83
2023/04/05 07:18:28;;;;;;;18.47;13.77;;;3.50;99.90;;;;;;5075634;28;20197;-83
2023/04/05 07:21:00;;;;;;;18.20;12.63;;;3.60;99.90;;;;;;5075512;28;20197;-84
2023/04/05 07:23:27;;;;;;;21.70;12.80;;;3.60;99.90;;;;;;5074927;28;20666;-83
2023/04/05 07:25:54;;;;;;;17.20;12.73;;;3.70;99.90;;;;;;5074650;28;20202;-84
2023/04/05 07:28:21;;;;;;;19.07;12.17;;;3.70;99.90;;;;;;5074604;28;20212;-82
2023/04/05 07:30:50;;;;;;;18.50;13.43;;;3.80;99.90;;;;;;5072798;28;20313;-82
2023/04/05 07:33:17;;;;;;;19.50;12.80;;;3.90;99.90;;;;;;5074118;28;20233;-85
2023/04/05 07:35:44;;;;;;;15.40;11.67;;;4.00;99.90;;;;;;5073836;28;20196;-83
2023/04/05 07:38:11;;;;;;;19.40;13.10;;;4.10;99.90;;;;;;5073393;28;20284;-83
2023/04/05 07:40:40;;;;;;;15.93;11.40;;;4.20;99.90;;;;;;5066632;28;20233;-84
2023/04/05 07:43:07;;;;;;;16.60;11.83;;;4.30;99.90;;;;;;5081756;28;20193;-82
2023/04/05 07:45:33;;;;;;;16.87;12.00;;;4.40;99.90;;;;;;5073933;28;20207;-83
2023/04/05 07:48:02;;;;;;;16.67;12.37;;;4.50;99.90;;;;;;5089386;28;20236;-83
2023/04/05 07:50:29;;;;;;;15.13;11.33;;;4.60;99.90;;;;;;5075109;28;20314;-83
2023/04/05 07:52:55;;;;;;;12.23;10.20;;;4.70;99.90;;;;;;5073965;28;20315;-82
2023/04/05 07:55:22;;;;;;;19.20;9.97;;;4.80;99.90;;;;;;5073088;28;20666;-84
2023/04/05 07:57:49;;;;;;;15.93;10.47;;;4.90;99.90;;;;;;5060656;28;20232;-83
2023/04/05 08:00:17;;;;;;;15.60;9.30;;;5.10;99.90;;;;;;5054405;28;20221;-84
2023/04/05 08:02:44;;;;;;;12.57;9.20;;;5.20;99.90;;;;;;5053499;28;20190;-83
2023/04/05 08:05:12;;;;;;;14.60;9.63;;;5.30;99.90;;;;;;5066610;28;20197;-83
2023/04/05 08:07:39;;;;;;;12.77;9.37;;;5.50;99.90;;;;;;5072810;28;20520;-82
2023/04/05 08:10:06;;;;;;;13.87;10.30;;;5.60;99.90;;;;;;5072887;28;20251;-82
2023/04/05 08:12:34;;;;;;;12.53;8.93;;;5.80;99.90;;;;;;5070985;28;20223;-82
2023/04/05 08:15:01;;;;;;;13.37;9.50;;;5.90;99.90;;;;;;5069379;28;20209;-82
2023/04/05 08:17:28;;;;;;;14.87;8.37;;;6.10;99.90;;;;;;5072444;28;20190;-83
2023/04/05 08:19:56;;;;;;;12.63;7.97;;;6.40;99.90;;;;;;5071295;28;20209;-79
2023/04/05 08:22:28;;;;;;;10.47;7.27;;;6.60;99.90;;;;;;5072175;28;20196;-82
2023/04/05 08:24:55;;;;;;;14.67;7.83;;;6.80;99.90;;;;;;5071528;28;20267;-83
2023/04/05 08:27:22;;;;;;;14.87;7.53;;;7.10;99.90;;;;;;5071128;28;20224;-82
2023/04/05 08:29:49;;;;;;;9.50;7.10;;;7.30;99.90;;;;;;5072766;28;20227;-82
2023/04/05 08:32:16;;;;;;;8.27;6.73;;;7.50;99.90;;;;;;5072605;28;20272;-83
2023/04/05 08:34:43;;;;;;;12.10;7.57;;;7.80;99.90;;;;;;5077643;28;20200;-80
2023/04/05 08:37:10;;;;;;;9.27;6.00;;;8.00;99.90;;;;;;5079824;28;20353;-81
2023/04/05 08:39:38;;;;;;;10.13;6.93;;;8.20;5.70;;;;;;5072227;28;20202;-81
2023/04/05 08:42:11;;;;;;;10.43;7.00;;;8.50;99.90;;;;;;5071911;28;20284;-82
2023/04/05 08:44:41;;;;;;;10.47;7.03;;;8.80;99.90;;;;;;5072812;28;20200;-83
2023/04/05 08:47:13;;;;;;;8.10;6.03;;;9.10;99.90;;;;;;5077153;28;20603;-82
2023/04/05 08:49:43;;;;;;;9.07;6.33;;;9.30;99.90;;;;;;5070575;28;20198;-80
2023/04/05 08:52:10;;;;;;;9.20;6.60;;;9.50;99.90;;;;;;5051920;28;20312;-81
2023/04/05 08:54:38;;;;;;;8.40;6.40;;;9.70;99.90;;;;;;5067005;28;20239;-82
2023/04/05 08:57:06;;;;;;;8.43;6.50;;;9.90;99.90;;;;;;5071605;28;20223;-81
2023/04/05 08:59:36;;;;;;;7.37;5.70;;;10.10;99.90;;;;;;5072004;28;20250;-81
2023/04/05 09:02:12;;;;;;;8.67;6.53;;;10.30;99.90;;;;;;5071536;28;20190;-82
2023/04/05 09:04:43;;;;;;;12.83;6.50;;;10.50;99.90;;;;;;5075213;28;20200;-82
2023/04/05 09:07:13;;;;;;;9.57;6.83;;;10.60;99.90;;;;;;5072240;28;20221;-82
2023/04/05 09:09:46;;;;;;;8.93;5.67;;;10.70;99.90;;;;;;5072363;28;20569;-81
2023/04/05 09:12:14;;;;;;;8.87;5.57;;;10.80;99.90;;;;;;5072276;28;20635;-81
2023/04/05 09:14:42;;;;;;;8.53;6.23;;;11.00;99.90;;;;;;5070937;28;20232;-82
2023/04/05 09:17:10;;;;;;;9.53;6.60;;;11.10;99.90;;;;;;5072482;28;20204;-83
2023/04/05 09:19:37;;;;;;;9.33;5.67;;;11.20;99.90;;;;;;5070301;28;20205;-83
2023/04/05 09:22:06;;;;;;;10.30;6.17;;;11.40;99.90;;;;;;5074679;28;20206;-83
2023/04/05 09:24:35;;;;;;;11.07;6.20;;;11.60;99.90;;;;;;5076380;28;20277;-84
2023/04/05 09:27:07;;;;;;;6.60;5.47;;;11.70;99.90;;;;;;5076010;28;20221;-83
2023/04/05 09:29:35;;;;;;;7.70;6.20;;;11.80;99.90;;;;;;5074067;28;20579;-82
2023/04/05 09:32:03;;;;;;;8.73;6.27;;;11.90;99.90;;;;;;5074998;28;20217;-81
2023/04/05 09:34:30;;;;;;;10.00;6.40;;;12.00;99.90;;;;;;5074922;28;20254;-80
2023/04/05 09:36:57;;;;;;;10.07;6.10;;;12.00;99.90;;;;;;5074945;28;20201;-81
2023/04/05 09:39:29;;;;;;;9.20;5.80;;;12.00;99.90;;;;;;5074784;28;20309;-81
2023/04/05 09:42:09;;;;;;;15.07;6.20;;;12.00;99.90;;;;;;5076103;28;20200;-81
2023/04/05 09:45:01;;;;;;;9.37;6.27;;;11.90;99.90;;;;;;5075387;28;20415;-82
2023/04/05 09:47:31;;;;;;;9.37;6.20;;;12.00;99.90;;;;;;5075017;28;20324;-81
2023/04/05 09:49:58;;;;;;;9.77;6.50;;;12.10;99.90;;;;;;5075467;28;20244;-81
2023/04/05 09:52:27;;;;;;;10.30;6.00;;;12.30;99.90;;;;;;5075431;28;20308;-81
2023/04/05 09:54:56;;;;;;;10.83;6.00;;;12.40;99.90;;;;;;5076728;28;20209;-86
2023/04/05 09:57:25;;;;;;;10.03;6.50;;;12.50;99.90;;;;;;5076291;28;20221;-84
2023/04/05 09:59:53;;;;;;;9.87;6.50;;;12.60;99.90;;;;;;5076393;28;20211;-85
2023/04/05 10:02:22;;;;;;;8.80;6.47;;;12.80;99.90;;;;;;5076231;28;20199;-82
2023/04/05 10:04:49;;;;;;;9.47;6.17;;;12.90;99.90;;;;;;5069098;28;20642;-83
2023/04/05 10:07:18;;;;;;;13.60;6.93;;;13.10;99.90;;;;;;5055673;28;20194;-81
2023/04/05 10:09:46;;;;;;;8.23;6.60;;;13.20;99.90;;;;;;5055348;28;20282;-82
2023/04/05 10:12:18;;;;;;;8.87;6.40;;;13.20;99.90;;;;;;5073253;28;20235;-81
2023/04/05 10:14:46;;;;;;;10.07;6.77;;;13.20;99.90;;;;;;5075077;28;20570;-84
2023/04/05 10:17:20;;;;;;;10.33;6.53;;;13.30;99.90;;;;;;5076255;28;20207;-83
2023/04/05 10:19:59;;;;;;;8.93;6.87;;;13.20;99.90;;;;;;5074723;28;20236;-83
2023/04/05 10:22:33;;;;;;;11.77;7.50;;;13.30;99.90;;;;;;5075572;28;20239;-83
2023/04/05 10:25:05;;;;;;;9.00;6.63;;;13.30;99.90;;;;;;5074755;28;20469;-83
2023/04/05 10:27:39;;;;;;;7.07;5.50;;;13.40;99.90;;;;;;5074910;28;20299;-81
2023/04/05 10:30:09;;;;;;;8.80;6.23;;;13.60;99.90;;;;;;5074834;28;20208;-81
2023/04/05 10:32:46;;;;;;;8.67;6.47;;;13.70;99.90;;;;;;5074264;28;20225;-81
2023/04/05 10:35:16;;;;;;;6.37;5.63;;;13.80;99.90;;;;;;5073671;28;20631;-86
2023/04/05 10:37:59;;;;;;;8.43;6.73;;;13.90;99.90;;;;;;5074799;28;20201;-81
2023/04/05 10:40:30;;;;;;;7.73;5.97;;;13.80;99.90;;;;;;5072635;28;20201;-83
2023/04/05 10:42:57;;;;;;;8.90;6.57;;;14.00;99.90;;;;;;5074841;28;20213;-83
2023/04/05 10:45:27;;;;;;;8.80;6.32;;;14.20;99.90;;;;;;5074089;28;20574;-82
2023/04/05 10:47:57;;;;;;;6.22;5.45;;;14.40;99.90;;;;;;5073839;28;20321;-83
2023/04/05 10:50:25;;;;;;;10.23;6.03;;;14.30;99.90;;;;;;5074596;28;20281;-83
2023/04/05 10:52:52;;;;;;;7.17;5.47;;;14.40;99.90;;;;;;5054899;28;20245;-81
2023/04/05 10:55:20;;;;;;;9.23;6.50;;;14.60;99.90;;;;;;5055346;28;20194;-82
2023/04/05 10:57:49;;;;;;;6.28;5.15;;;14.50;99.90;;;;;;5067343;28;20205;-82
2023/04/05 11:00:17;;;;;;;6.13;5.40;;;14.30;99.90;;;;;;5075102;28;20198;-83
2023/04/05 11:02:46;;;;;;;7.65;5.95;;;14.50;99.90;;;;;;5074876;28;20203;-83
2023/04/05 11:05:29;;;;;;;9.80;6.25;;;14.70;99.90;;;;;;5074979;28;20193;-83
2023/04/05 11:08:02;;;;;;;9.13;6.43;;;14.80;99.90;;;;;;5074559;28;20204;-83
2023/04/05 11:10:30;;;;;;;9.55;6.00;;;14.70;99.90;;;;;;5073941;28;20203;-82
2023/04/05 11:13:10;;;;;;;8.73;6.60;;;14.70;99.90;;;;;;5074551;28;20233;-82
2023/04/05 11:15:38;;;;;;;8.60;6.40;;;14.60;99.90;;;;;;5065851;28;20227;-83
2023/04/05 11:18:08;;;;;;;8.50;6.67;;;14.70;99.90;;;;;;5075062;28;20299;-82
2023/04/05 11:21:05;;;;;;;9.45;6.53;;;14.60;99.90;;;;;;5075043;28;20227;-83
2023/04/05 11:23:32;;;;;;;6.80;5.97;;;14.60;99.90;;;;;;5071115;28;20198;-82
2023/04/05 11:26:04;;;;;;;8.27;6.67;;;14.40;99.90;;;;;;5074656;28;20287;-82
2023/04/05 11:28:36;;;;;;;11.75;7.13;;;14.40;99.90;;;;;;5073744;28;20585;-83
2023/04/05 11:31:14;;;;;;;9.73;6.90;;;14.30;99.90;;;;;;5074790;28;20215;-84
2023/04/05 11:34:04;;;;;;;6.60;5.93;;;14.30;99.90;;;;;;5061485;28;20218;-82
2023/04/05 11:36:40;;;;;;;7.03;5.97;;;14.60;99.90;;;;;;5053727;28;20213;-81
2023/04/05 11:39:27;;;;;;;7.72;6.18;;;14.70;99.90;;;;;;5054987;28;20225;-82
2023/04/05 11:42:02;;;;;;;8.73;6.57;;;14.90;99.90;;;;;;5057536;28;20197;-81
2023/04/05 11:44:33;;;;;;;10.97;7.97;;;15.00;99.90;;;;;;5073474;28;20504;-80
2023/04/05 11:47:00;;;;;;;8.60;7.40;;;15.10;99.90;;;;;;5073229;28;20260;-82
2023/04/05 11:49:28;;;;;;;12.40;8.37;;;15.10;99.90;;;;;;5073086;28;20201;-81
2023/04/05 11:51:55;;;;;;;13.65;9.35;;;15.20;99.90;;;;;;5074075;28;20193;-82
2023/04/05 11:54:32;;;;;;;10.20;8.27;;;15.30;99.90;;;;;;5072926;28;20225;-82
2023/04/05 11:56:59;;;;;;;11.68;8.68;;;14.90;99.90;;;;;;5073530;28;20203;-82
2023/04/05 11:59:34;;;;;;;11.80;9.03;;;14.50;99.90;;;;;;5074082;28;20488;-81
2023/04/05 12:02:02;;;;;;;13.63;8.80;;;14.40;99.90;;;;;;5073314;28;20200;-81
2023/04/05 12:04:31;;;;;;;9.63;8.10;;;14.50;99.90;;;;;;5072751;28;20197;-81
2023/04/05 12:07:16;;;;;;;11.43;8.73;;;14.50;99.90;;;;;;5073665;28;20220;-81
2023/04/05 12:10:03;;;;;;;13.00;10.10;;;14.60;99.90;;;;;;5073581;28;20178;-82
2023/04/05 12:12:35;;;;;;;13.00;9.23;;;14.60;99.90;;;;;;5071963;28;20289;-81
2023/04/05 12:15:03;;;;;;;15.13;9.83;;;14.50;99.90;;;;;;5073595;28;20197;-81
2023/04/05 12:17:42;;;;;;;13.38;9.63;;;14.50;99.90;;;;;;5073163;28;20787;-81
2023/04/05 12:20:12;;;;;;;12.63;9.10;;;14.50;99.90;;;;;;5053679;28;20186;-81
2023/04/05 12:22:40;;;;;;;9.93;8.70;;;14.50;99.90;;;;;;5053729;28;20606;-81
2023/04/05 12:25:09;;;;;;;10.67;9.00;;;14.50;99.90;;;;;;5063176;28;20208;-80
2023/04/05 12:27:36;;;;;;;11.77;9.03;;;14.50;99.90;;;;;;5072963;28;20394;-81
2023/04/05 12:30:08;;;;;;;11.47;9.33;;;14.40;99.90;;;;;;5072906;28;20590;-81
2023/04/05 12:32:37;;;;;;;12.55;9.70;;;14.50;99.90;;;;;;5071894;28;20212;-81
2023/04/05 12:35:07;;;;;;;13.97;9.80;;;14.60;99.90;;;;;;5072905;28;20197;-81
2023/04/05 12:37:36;;;;;;;14.23;10.33;;;14.40;99.90;;;;;;5072341;28;20205;-82
2023/04/05 12:40:04;;;;;;;13.17;9.63;;;14.40;99.90;;;;;;5072278;28;20612;-80
2023/04/05 12:42:34;;;;;;;11.67;9.80;;;14.40;99.90;;;;;;5071984;28;20237;-81
2023/04/05 12:45:06;;;;;;;11.40;9.40;;;14.50;99.90;;;;;;5072672;28;20224;-82
2023/04/05 12:47:36;;;;;;;13.13;10.03;;;14.50;99.90;;;;;;5071799;28;20581;-81
2023/04/05 12:50:14;;;;;;;13.93;9.83;;;14.60;99.90;;;;;;5072659;28;20504;-81
2023/04/05 12:52:54;;;;;;;13.53;9.53;;;14.60;99.90;;;;;;5071533;28;20615;-82
2023/04/05 12:55:21;;;;;;;13.30;10.13;;;14.50;99.90;;;;;;5053001;28;20204;-81